createdAt,value
2018-06-24T00:01:57.758Z,15.40
2018-06-24T00:04:26.025Z,15.30
2018-06-24T00:06:54.284Z,15.40
2018-06-24T00:09:22.590Z,15.40
2018-06-24T00:11:50.880Z,15.40
2018-06-24T00:14:19.143Z,15.50
2018-06-24T00:16:47.432Z,15.50
2018-06-24T00:19:15.674Z,15.60
2018-06-24T00:21:43.949Z,15.60
2018-06-24T00:24:12.192Z,15.60
2018-06-24T00:26:40.711Z,15.60
2018-06-24T00:29:08.986Z,15.80
2018-06-24T00:31:37.241Z,15.80
2018-06-24T00:34:05.567Z,15.80
2018-06-24T00:36:33.854Z,15.80
2018-06-24T00:39:02.114Z,15.70
2018-06-24T00:41:30.377Z,15.70
2018-06-24T00:43:58.631Z,15.60
2018-06-24T00:46:26.833Z,15.50
2018-06-24T00:48:55.155Z,15.60
2018-06-24T00:51:23.393Z,15.50
2018-06-24T00:53:51.673Z,15.40
2018-06-24T00:56:19.947Z,15.40
2018-06-24T00:58:48.207Z,15.30
2018-06-24T01:01:16.444Z,15.40
2018-06-24T01:03:44.732Z,15.40
2018-06-24T01:08:40.983Z,15.40
2018-06-24T01:11:09.258Z,15.40
2018-06-24T01:13:37.561Z,15.40
2018-06-24T01:16:05.839Z,15.40
2018-06-24T01:18:34.136Z,15.40
2018-06-24T01:21:02.429Z,15.30
2018-06-24T01:23:30.691Z,15.30
2018-06-24T01:25:58.990Z,15.30
2018-06-24T01:28:27.267Z,15.20
2018-06-24T01:30:55.538Z,15.10
2018-06-24T01:33:23.782Z,15.10
2018-06-24T01:35:52.039Z,15.20
2018-06-24T01:38:20.281Z,15.30
2018-06-24T01:40:48.599Z,15.30
2018-06-24T01:43:16.872Z,15.20
2018-06-24T01:45:45.111Z,15.20
2018-06-24T01:48:13.367Z,15.20
2018-06-24T01:50:41.631Z,15.20
2018-06-24T01:53:09.926Z,15.20
2018-06-24T01:55:38.187Z,15.20
2018-06-24T01:58:06.503Z,15.10
2018-06-24T02:03:02.794Z,15.10
2018-06-24T02:05:31.072Z,15.00
2018-06-24T02:07:59.347Z,14.90
2018-06-24T02:10:27.603Z,14.90
2018-06-24T02:12:56.255Z,14.90
2018-06-24T02:17:52.497Z,14.80
2018-06-24T02:22:55.547Z,14.60
2018-06-24T02:25:23.827Z,14.70
2018-06-24T02:27:52.075Z,14.70
2018-06-24T02:30:20.347Z,14.80
2018-06-24T02:32:48.604Z,14.70
2018-06-24T02:37:44.868Z,14.90
2018-06-24T02:40:13.151Z,15.00
2018-06-24T02:42:41.415Z,15.00
2018-06-24T02:47:37.795Z,15.10
2018-06-24T02:50:06.078Z,15.20
2018-06-24T02:52:35.128Z,15.40
2018-06-24T02:57:31.431Z,15.40
2018-06-24T02:59:59.651Z,15.40
2018-06-24T03:02:27.971Z,15.30
2018-06-24T03:04:56.195Z,15.30
2018-06-24T03:09:59.005Z,15.20
2018-06-24T03:12:27.274Z,15.20
2018-06-24T03:17:23.541Z,15.10
2018-06-24T03:19:51.811Z,15.20
2018-06-24T03:22:20.100Z,15.20
2018-06-24T03:24:48.368Z,15.20
2018-06-24T03:27:16.624Z,15.30
2018-06-24T03:29:44.919Z,15.30
2018-06-24T03:32:13.168Z,15.40
2018-06-24T03:34:41.452Z,15.30
2018-06-24T03:37:09.748Z,15.20
2018-06-24T03:39:38.019Z,15.10
2018-06-24T03:42:06.328Z,15.10
2018-06-24T03:44:34.646Z,15.10
2018-06-24T03:49:30.905Z,15.10
2018-06-24T03:56:55.149Z,15.10
2018-06-24T03:59:23.398Z,15.10
2018-06-24T04:01:51.659Z,15.10
2018-06-24T04:06:48.116Z,14.70
2018-06-24T04:09:16.649Z,14.80
2018-06-24T04:11:45.104Z,14.90
2018-06-24T04:14:13.656Z,14.90
2018-06-24T04:16:42.158Z,15.00
2018-06-24T04:19:10.763Z,15.10
2018-06-24T04:21:39.282Z,15.20
2018-06-24T04:24:07.791Z,15.20
2018-06-24T04:26:36.259Z,15.40
2018-06-24T04:29:04.818Z,15.50
2018-06-24T04:31:33.524Z,15.40
2018-06-24T04:34:01.910Z,15.30
2018-06-24T04:36:30.442Z,15.50
2018-06-24T04:38:58.896Z,15.40
2018-06-24T04:41:27.415Z,15.50
2018-06-24T04:43:55.844Z,15.60
2018-06-24T04:46:24.358Z,15.70
2018-06-24T04:48:52.863Z,15.80
2018-06-24T04:51:21.403Z,15.80
2018-06-24T04:53:49.921Z,15.80
2018-06-24T04:56:18.401Z,15.80
2018-06-24T04:58:46.913Z,15.70
2018-06-24T05:01:15.449Z,15.70
2018-06-24T05:03:44.039Z,15.60
2018-06-24T05:06:12.517Z,15.60
2018-06-24T05:08:41.116Z,15.70
2018-06-24T05:11:09.592Z,15.90
2018-06-24T05:13:38.424Z,16.00
2018-06-24T05:18:35.010Z,16.30
2018-06-24T05:21:03.515Z,16.40
2018-06-24T05:23:32.034Z,16.50
2018-06-24T05:26:00.603Z,16.60
2018-06-24T05:28:29.112Z,16.70
2018-06-24T05:30:57.620Z,16.70
2018-06-24T05:33:26.023Z,16.70
2018-06-24T05:35:54.480Z,16.80
2018-06-24T05:38:23.005Z,16.60
2018-06-24T05:40:51.296Z,16.60
2018-06-24T05:43:19.599Z,16.40
2018-06-24T05:45:47.874Z,16.40
2018-06-24T05:48:16.149Z,16.40
2018-06-24T05:50:44.471Z,16.50
2018-06-24T05:53:12.701Z,16.50
2018-06-24T05:55:41.003Z,16.60
2018-06-24T05:58:09.256Z,16.70
2018-06-24T06:00:37.586Z,16.80
2018-06-24T06:03:06.027Z,16.70
2018-06-24T06:05:34.359Z,16.70
2018-06-24T06:08:02.636Z,16.60
2018-06-24T06:10:30.963Z,16.60
2018-06-24T06:15:27.263Z,16.90
2018-06-24T06:17:55.570Z,17.20
2018-06-24T06:20:23.880Z,17.30
2018-06-24T06:22:52.234Z,17.10
2018-06-24T06:25:20.575Z,17.10
2018-06-24T06:27:48.855Z,17.30
2018-06-24T06:30:17.179Z,17.40
2018-06-24T06:32:45.475Z,17.30
2018-06-24T06:35:13.723Z,17.30
2018-06-24T06:37:42.005Z,17.50
2018-06-24T06:40:10.313Z,17.50
2018-06-24T06:42:38.651Z,17.60
2018-06-24T06:45:07.054Z,17.60
2018-06-24T06:47:35.253Z,17.70
2018-06-24T06:50:03.612Z,17.80
2018-06-24T06:52:31.887Z,18.60
2018-06-24T06:55:00.166Z,18.40
2018-06-24T06:57:28.488Z,18.50
2018-06-24T06:59:56.735Z,18.70
2018-06-24T07:02:25.010Z,18.90
2018-06-24T07:04:53.291Z,19.40
2018-06-24T07:07:21.622Z,19.70
2018-06-24T07:09:49.919Z,19.10
2018-06-24T07:12:18.388Z,19.30
2018-06-24T07:14:47.216Z,19.60
2018-06-24T07:17:15.491Z,19.30
2018-06-24T07:19:44.095Z,19.50
2018-06-24T07:22:12.611Z,19.40
2018-06-24T07:24:41.063Z,19.40
2018-06-24T07:27:09.468Z,19.10
2018-06-24T07:29:37.772Z,19.70
2018-06-24T07:32:06.425Z,20.10
2018-06-24T07:34:34.736Z,21.20
2018-06-24T07:37:03.459Z,20.90
2018-06-24T07:39:31.866Z,20.90
2018-06-24T07:42:00.297Z,21.00
2018-06-24T07:44:28.599Z,21.10
2018-06-24T07:46:57.202Z,21.40
2018-06-24T07:49:25.574Z,20.80
2018-06-24T07:51:53.870Z,20.30
2018-06-24T07:54:22.156Z,20.40
2018-06-24T07:56:50.432Z,20.50
2018-06-24T07:59:18.726Z,20.20
2018-06-24T08:01:47.002Z,20.20
2018-06-24T08:04:15.292Z,20.30
2018-06-24T08:06:43.560Z,20.10
2018-06-24T08:09:12.625Z,19.60
2018-06-24T08:11:41.910Z,19.70
2018-06-24T08:14:10.216Z,19.80
2018-06-24T08:16:38.493Z,19.80
2018-06-24T08:19:06.826Z,19.90
2018-06-24T08:21:35.047Z,20.30
2018-06-24T08:24:03.327Z,20.70
2018-06-24T08:26:31.582Z,20.60
2018-06-24T08:28:59.877Z,20.50
2018-06-24T08:31:28.123Z,20.70
2018-06-24T08:33:56.431Z,20.70
2018-06-24T08:36:24.741Z,20.70
2018-06-24T08:41:21.084Z,20.70
2018-06-24T08:46:17.434Z,20.40
2018-06-24T08:51:13.735Z,20.50
2018-06-24T08:53:42.014Z,19.80
2018-06-24T08:56:10.282Z,19.60
2018-06-24T08:58:38.582Z,19.60
2018-06-24T09:01:06.895Z,20.00
2018-06-24T09:03:35.214Z,20.00
2018-06-24T09:06:03.559Z,20.10
2018-06-24T09:08:31.869Z,20.10
2018-06-24T09:11:00.170Z,20.40
2018-06-24T09:13:28.892Z,20.60
2018-06-24T09:15:57.241Z,20.50
2018-06-24T09:18:25.487Z,20.30
2018-06-24T09:20:53.748Z,20.70
2018-06-24T09:23:22.059Z,21.20
2018-06-24T09:25:50.388Z,21.10
2018-06-24T09:28:18.709Z,20.90
2018-06-24T09:30:47.046Z,21.00
2018-06-24T09:33:15.327Z,20.70
2018-06-24T09:35:43.724Z,20.60
2018-06-24T09:38:12.021Z,20.60
2018-06-24T09:40:40.308Z,21.10
2018-06-24T09:43:08.648Z,21.80
2018-06-24T09:45:36.887Z,21.90
2018-06-24T09:48:05.426Z,22.10
2018-06-24T09:50:34.072Z,22.40
2018-06-24T09:53:02.991Z,21.90
2018-06-24T09:55:31.366Z,22.30
2018-06-24T09:57:59.709Z,22.80
2018-06-24T10:00:27.986Z,23.30
2018-06-24T10:02:56.393Z,23.20
2018-06-24T10:05:24.747Z,23.20
2018-06-24T10:07:53.021Z,22.80
2018-06-24T10:10:21.364Z,23.50
2018-06-24T10:12:49.661Z,23.50
2018-06-24T10:17:45.998Z,22.30
2018-06-24T10:20:14.365Z,22.60
2018-06-24T10:22:42.595Z,22.20
2018-06-24T10:25:10.946Z,23.40
2018-06-24T10:30:07.512Z,24.10
2018-06-24T10:32:35.871Z,22.90
2018-06-24T10:35:04.347Z,22.70
2018-06-24T10:37:32.752Z,22.80
2018-06-24T10:40:01.072Z,23.60
2018-06-24T10:42:29.369Z,24.10
2018-06-24T10:44:57.609Z,24.50
2018-06-24T10:47:25.879Z,25.60
2018-06-24T10:49:54.298Z,26.70
2018-06-24T10:52:22.598Z,27.10
2018-06-24T10:54:50.925Z,27.40
2018-06-24T10:57:19.346Z,28.10
2018-06-24T10:59:47.967Z,27.50
2018-06-24T11:02:16.303Z,26.90
2018-06-24T11:09:40.761Z,28.20
2018-06-24T11:12:09.082Z,29.20
2018-06-24T11:14:37.359Z,28.90
2018-06-24T11:17:05.774Z,27.30
2018-06-24T11:19:34.022Z,26.80
2018-06-24T11:24:30.519Z,26.80
2018-06-24T11:26:58.843Z,25.60
2018-06-24T11:29:27.120Z,25.10
2018-06-24T11:31:55.386Z,23.60
2018-06-24T11:34:23.654Z,22.60
2018-06-24T11:36:51.946Z,22.30
2018-06-24T11:39:20.304Z,24.10
2018-06-24T11:41:48.546Z,26.20
2018-06-24T11:44:16.833Z,26.80
2018-06-24T11:46:45.113Z,27.40
2018-06-24T11:49:13.402Z,27.50
2018-06-24T11:51:41.729Z,26.70
2018-06-24T11:54:09.981Z,25.40
2018-06-24T11:56:38.273Z,25.20
2018-06-24T11:59:06.539Z,24.80
2018-06-24T12:01:34.744Z,24.60
2018-06-24T12:04:03.042Z,25.60
2018-06-24T12:06:31.248Z,25.50
2018-06-24T12:08:59.554Z,25.10
2018-06-24T12:11:27.890Z,25.20
2018-06-24T12:13:56.159Z,25.80
2018-06-24T12:16:24.436Z,25.80
2018-06-24T12:18:52.832Z,25.20
2018-06-24T12:21:21.095Z,25.10
2018-06-24T12:23:49.382Z,24.30
2018-06-24T12:26:17.674Z,24.70
2018-06-24T12:28:46.068Z,24.70
2018-06-24T12:31:14.367Z,25.30
2018-06-24T12:33:42.642Z,25.80
2018-06-24T12:36:10.913Z,26.10
2018-06-24T12:38:39.196Z,26.80
2018-06-24T12:41:07.546Z,25.90
2018-06-24T12:46:03.886Z,25.00
2018-06-24T12:48:32.323Z,24.50
2018-06-24T12:51:00.691Z,24.50
2018-06-24T12:53:28.928Z,24.30
2018-06-24T12:55:57.181Z,24.70
2018-06-24T12:58:25.466Z,25.00
2018-06-24T13:00:54.083Z,25.40
2018-06-24T13:03:21.966Z,25.60
2018-06-24T13:05:50.270Z,24.80
2018-06-24T13:08:18.844Z,24.90
2018-06-24T13:10:47.148Z,24.70
2018-06-24T13:13:19.370Z,24.30
2018-06-24T13:15:48.511Z,24.20
2018-06-24T13:18:16.804Z,24.60
2018-06-24T13:20:45.126Z,25.10
2018-06-24T13:23:13.439Z,24.30
2018-06-24T13:25:41.766Z,23.50
2018-06-24T13:28:10.079Z,23.50
2018-06-24T13:30:38.428Z,23.70
2018-06-24T13:33:06.710Z,23.50
2018-06-24T13:35:35.024Z,23.10
2018-06-24T13:38:03.263Z,23.50
2018-06-24T13:40:31.562Z,23.60
2018-06-24T13:42:59.895Z,23.60
2018-06-24T13:45:28.215Z,23.40
2018-06-24T13:47:56.501Z,22.80
2018-06-24T13:50:24.784Z,22.90
2018-06-24T13:52:53.063Z,23.10
2018-06-24T13:55:21.332Z,23.10
2018-06-24T13:57:50.591Z,23.50
2018-06-24T14:00:18.888Z,23.40
2018-06-24T14:02:47.151Z,23.10
2018-06-24T14:05:15.521Z,23.00
2018-06-24T14:07:43.903Z,22.80
2018-06-24T14:10:12.239Z,22.60
2018-06-24T14:12:40.536Z,22.60
2018-06-24T14:15:08.883Z,22.30
2018-06-24T14:17:37.128Z,22.50
2018-06-24T14:20:06.016Z,22.60
2018-06-24T14:22:34.274Z,23.10
2018-06-24T14:25:02.568Z,23.20
2018-06-24T14:27:30.877Z,23.70
2018-06-24T14:30:00.112Z,23.40
2018-06-24T14:32:28.556Z,23.80
2018-06-24T14:34:56.931Z,23.40
2018-06-24T14:37:25.380Z,23.40
2018-06-24T14:39:53.655Z,24.10
2018-06-24T14:42:21.940Z,23.90
2018-06-24T14:44:50.418Z,23.60
2018-06-24T14:47:18.912Z,23.60
2018-06-24T14:49:47.473Z,23.70
2018-06-24T14:52:15.759Z,23.80
2018-06-24T14:54:44.027Z,23.60
2018-06-24T14:57:12.398Z,22.90
2018-06-24T14:59:40.671Z,22.70
2018-06-24T15:02:08.952Z,22.50
2018-06-24T15:07:11.924Z,22.40
2018-06-24T15:09:40.249Z,22.90
2018-06-24T15:12:08.612Z,22.90
2018-06-24T15:14:36.901Z,22.40
2018-06-24T15:17:06.203Z,22.20
2018-06-24T15:19:34.745Z,22.40
2018-06-24T15:22:03.100Z,22.00
2018-06-24T15:24:31.403Z,22.00
2018-06-24T15:26:59.651Z,21.90
2018-06-24T15:29:27.914Z,21.90
2018-06-24T15:31:56.252Z,21.60
2018-06-24T15:34:24.582Z,21.50
2018-06-24T15:36:52.881Z,21.80
2018-06-24T15:39:21.185Z,21.70
2018-06-24T15:41:49.500Z,21.90
2018-06-24T15:44:17.784Z,21.20
2018-06-24T15:46:46.039Z,21.20
2018-06-24T15:49:14.365Z,21.20
2018-06-24T15:51:42.678Z,21.60
2018-06-24T15:54:10.972Z,21.70
2018-06-24T15:56:39.748Z,21.90
2018-06-24T15:59:08.186Z,21.90
2018-06-24T16:01:36.484Z,21.80
2018-06-24T16:04:04.853Z,22.00
2018-06-24T16:06:33.213Z,21.90
2018-06-24T16:09:01.514Z,21.30
2018-06-24T16:11:29.848Z,21.60
2018-06-24T16:16:26.360Z,20.90
2018-06-24T16:18:54.697Z,20.90
2018-06-24T16:21:22.985Z,20.90
2018-06-24T16:23:51.379Z,20.80
2018-06-24T16:26:19.685Z,21.00
2018-06-24T16:28:48.229Z,21.00
2018-06-24T16:31:16.572Z,21.10
2018-06-24T16:36:13.259Z,21.00
2018-06-24T16:38:41.549Z,20.70
2018-06-24T16:41:09.867Z,20.70
2018-06-24T16:43:38.147Z,20.60
2018-06-24T16:46:06.484Z,20.50
2018-06-24T16:48:35.956Z,20.40
2018-06-24T16:53:32.378Z,20.40
2018-06-24T16:56:00.666Z,20.50
2018-06-24T17:00:57.434Z,20.40
2018-06-24T17:03:25.772Z,20.60
2018-06-24T17:05:54.041Z,20.60
2018-06-24T17:08:22.371Z,20.30
2018-06-24T17:10:50.748Z,20.20
2018-06-24T17:13:19.027Z,20.30
2018-06-24T17:15:47.303Z,20.40
2018-06-24T17:18:15.608Z,20.40
2018-06-24T17:20:43.875Z,20.20
2018-06-24T17:23:12.252Z,20.20
2018-06-24T17:25:40.531Z,20.30
2018-06-24T17:28:08.921Z,20.30
2018-06-24T17:30:37.155Z,20.40
2018-06-24T17:33:05.423Z,20.20
2018-06-24T17:40:30.096Z,19.90
2018-06-24T17:42:58.960Z,19.60
2018-06-24T17:45:27.561Z,19.40
2018-06-24T17:47:56.296Z,19.30
2018-06-24T17:50:24.746Z,19.50
2018-06-24T17:52:53.043Z,19.50
2018-06-24T17:55:21.503Z,19.40
2018-06-24T17:57:49.981Z,19.40
2018-06-24T18:00:18.422Z,19.40
2018-06-24T18:02:46.721Z,19.40
2018-06-24T18:05:15.051Z,19.40
2018-06-24T18:07:43.422Z,19.50
2018-06-24T18:10:11.952Z,19.40
2018-06-24T18:12:40.291Z,19.40
2018-06-24T18:15:08.556Z,19.40
2018-06-24T18:17:36.887Z,19.40
2018-06-24T18:20:05.226Z,19.40
2018-06-24T18:25:01.503Z,19.30
2018-06-24T18:27:29.799Z,19.10
2018-06-24T18:29:58.104Z,19.20
2018-06-24T18:32:26.433Z,19.20
2018-06-24T18:34:54.870Z,19.30
2018-06-24T18:37:23.195Z,19.20
2018-06-24T18:39:51.783Z,19.40
2018-06-24T18:42:20.287Z,19.50
2018-06-24T18:44:48.837Z,19.50
2018-06-24T18:47:17.558Z,19.50
